sensor_id;sensor_type;location;lat;lon;timestamp;P1;durP1;ratioP1;P2;durP2;ratioP2
68375;SDS011;55318;52.068;5.188;2022-12-29T00:01:34;0.7;;;0.7;;
68375;SDS011;55318;52.068;5.188;2022-12-29T00:03:12;1.5;;;0.8;;
68375;SDS011;55318;52.068;5.188;2022-12-29T00:04:49;1.0;;;0.7;;
68375;SDS011;55318;52.068;5.188;2022-12-29T00:06:26;1.6;;;1.11;;
68375;SDS011;55318;52.068;5.188;2022-12-29T00:09:39;1.0;;;0.8;;
68375;SDS011;55318;52.068;5.188;2022-12-29T00:11:17;1.7;;;1.11;;
68375;SDS011;55318;52.068;5.188;2022-12-29T00:12:55;0.9;;;0.8;;
68375;SDS011;55318;52.068;5.188;2022-12-29T00:16:08;0.9;;;0.7;;
68375;SDS011;55318;52.068;5.188;2022-12-29T00:17:44;1.11;;;0.8;;
68375;SDS011;55318;52.068;5.188;2022-12-29T00:19:20;0.6;;;0.6;;
68375;SDS011;55318;52.068;5.188;2022-12-29T00:22:33;0.7;;;0.7;;
68375;SDS011;55318;52.068;5.188;2022-12-29T00:24:11;1.9;;;1.0;;
68375;SDS011;55318;52.068;5.188;2022-12-29T00:25:50;1.2;;;1.0;;
68375;SDS011;55318;52.068;5.188;2022-12-29T00:27:26;0.7;;;0.7;;
68375;SDS011;55318;52.068;5.188;2022-12-29T00:30:40;0.9;;;0.9;;
68375;SDS011;55318;52.068;5.188;2022-12-29T00:32:17;0.6;;;0.6;;
68375;SDS011;55318;52.068;5.188;2022-12-29T00:33:53;0.7;;;0.7;;
68375;SDS011;55318;52.068;5.188;2022-12-29T00:37:12;0.7;;;0.7;;
68375;SDS011;55318;52.068;5.188;2022-12-29T00:38:50;0.8;;;0.7;;
68375;SDS011;55318;52.068;5.188;2022-12-29T00:40:30;0.9;;;0.8;;
68375;SDS011;55318;52.068;5.188;2022-12-29T00:42:08;1.3;;;1.2;;
68375;SDS011;55318;52.068;5.188;2022-12-29T00:45:21;1.11;;;0.8;;
68375;SDS011;55318;52.068;5.188;2022-12-29T00:46:57;1.0;;;0.7;;
68375;SDS011;55318;52.068;5.188;2022-12-29T00:48:33;1.3;;;0.7;;
68375;SDS011;55318;52.068;5.188;2022-12-29T00:51:46;1.0;;;0.6;;
68375;SDS011;55318;52.068;5.188;2022-12-29T00:53:23;0.7;;;0.7;;
68375;SDS011;55318;52.068;5.188;2022-12-29T00:54:59;2.31;;;0.7;;
68375;SDS011;55318;52.068;5.188;2022-12-29T00:58:13;0.5;;;0.5;;
68375;SDS011;55318;52.068;5.188;2022-12-29T00:59:49;1.11;;;0.6;;
68375;SDS011;55318;52.068;5.188;2022-12-29T01:01:26;0.9;;;0.8;;
68375;SDS011;55318;52.068;5.188;2022-12-29T01:03:02;1.8;;;0.5;;
68375;SDS011;55318;52.068;5.188;2022-12-29T01:06:14;0.8;;;0.6;;
68375;SDS011;55318;52.068;5.188;2022-12-29T01:07:51;0.3;;;0.3;;
68375;SDS011;55318;52.068;5.188;2022-12-29T01:09:27;0.5;;;0.4;;
68375;SDS011;55318;52.068;5.188;2022-12-29T01:12:42;0.8;;;0.5;;
68375;SDS011;55318;52.068;5.188;2022-12-29T01:14:19;0.6;;;0.4;;
68375;SDS011;55318;52.068;5.188;2022-12-29T01:15:55;0.9;;;0.7;;
68375;SDS011;55318;52.068;5.188;2022-12-29T01:17:33;0.7;;;0.6;;
68375;SDS011;55318;52.068;5.188;2022-12-29T01:20:47;0.9;;;0.7;;
68375;SDS011;55318;52.068;5.188;2022-12-29T01:22:24;2.0;;;0.6;;
68375;SDS011;55318;52.068;5.188;2022-12-29T01:24:00;0.5;;;0.5;;
68375;SDS011;55318;52.068;5.188;2022-12-29T01:27:14;0.8;;;0.7;;
68375;SDS011;55318;52.068;5.188;2022-12-29T01:28:50;0.5;;;0.4;;
68375;SDS011;55318;52.068;5.188;2022-12-29T01:30:26;1.11;;;0.7;;
68375;SDS011;55318;52.068;5.188;2022-12-29T01:33:41;0.4;;;0.4;;
68375;SDS011;55318;52.068;5.188;2022-12-29T01:35:18;0.7;;;0.7;;
68375;SDS011;55318;52.068;5.188;2022-12-29T01:36:55;0.8;;;0.5;;
68375;SDS011;55318;52.068;5.188;2022-12-29T01:38:31;1.8;;;0.5;;
68375;SDS011;55318;52.068;5.188;2022-12-29T01:41:46;0.9;;;0.7;;
68375;SDS011;55318;52.068;5.188;2022-12-29T01:43:37;0.7;;;0.7;;
68375;SDS011;55318;52.068;5.188;2022-12-29T01:45:16;1.11;;;0.4;;
68375;SDS011;55318;52.068;5.188;2022-12-29T01:46:53;1.5;;;0.5;;
68375;SDS011;55318;52.068;5.188;2022-12-29T01:50:09;0.6;;;0.5;;
68375;SDS011;55318;52.068;5.188;2022-12-29T01:51:52;1.2;;;0.6;;
68375;SDS011;55318;52.068;5.188;2022-12-29T01:53:34;2.0;;;0.5;;
68375;SDS011;55318;52.068;5.188;2022-12-29T01:55:12;1.3;;;0.5;;
68375;SDS011;55318;52.068;5.188;2022-12-29T01:58:28;0.8;;;0.8;;
68375;SDS011;55318;52.068;5.188;2022-12-29T02:00:10;0.8;;;0.8;;
68375;SDS011;55318;52.068;5.188;2022-12-29T02:01:49;0.6;;;0.5;;
68375;SDS011;55318;52.068;5.188;2022-12-29T02:05:07;1.8;;;0.6;;
68375;SDS011;55318;52.068;5.188;2022-12-29T02:06:51;0.4;;;0.4;;
68375;SDS011;55318;52.068;5.188;2022-12-29T02:08:32;1.0;;;0.6;;
68375;SDS011;55318;52.068;5.188;2022-12-29T02:10:08;0.5;;;0.5;;
68375;SDS011;55318;52.068;5.188;2022-12-29T02:13:23;0.7;;;0.5;;
68375;SDS011;55318;52.068;5.188;2022-12-29T02:15:00;0.5;;;0.5;;
68375;SDS011;55318;52.068;5.188;2022-12-29T02:16:43;0.8;;;0.6;;
68375;SDS011;55318;52.068;5.188;2022-12-29T02:18:39;1.2;;;0.5;;
68375;SDS011;55318;52.068;5.188;2022-12-29T02:20:35;0.4;;;0.4;;
68375;SDS011;55318;52.068;5.188;2022-12-29T02:24:11;0.9;;;0.5;;
68375;SDS011;55318;52.068;5.188;2022-12-29T02:27:12;0.9;;;0.5;;
68375;SDS011;55318;52.068;5.188;2022-12-29T02:30:51;0.7;;;0.5;;
68375;SDS011;55318;52.068;5.188;2022-12-29T02:34:29;1.4;;;0.7;;
68375;SDS011;55318;52.068;5.188;2022-12-29T02:36:20;0.6;;;0.5;;
68375;SDS011;55318;52.068;5.188;2022-12-29T02:38:10;0.5;;;0.5;;
68375;SDS011;55318;52.068;5.188;2022-12-29T02:39:56;1.0;;;0.3;;
68375;SDS011;55318;52.068;5.188;2022-12-29T02:41:44;1.0;;;0.4;;
68375;SDS011;55318;52.068;5.188;2022-12-29T02:43:41;1.0;;;0.3;;
68375;SDS011;55318;52.068;5.188;2022-12-29T02:45:31;1.3;;;0.4;;
68375;SDS011;55318;52.068;5.188;2022-12-29T02:49:01;0.4;;;0.4;;
68375;SDS011;55318;52.068;5.188;2022-12-29T02:50:48;0.5;;;0.4;;
68375;SDS011;55318;52.068;5.188;2022-12-29T02:52:34;2.8;;;0.5;;
68375;SDS011;55318;52.068;5.188;2022-12-29T02:54:16;0.8;;;0.5;;
68375;SDS011;55318;52.068;5.188;2022-12-29T02:55:53;1.11;;;0.4;;
68375;SDS011;55318;52.068;5.188;2022-12-29T02:59:09;1.3;;;0.3;;
68375;SDS011;55318;52.068;5.188;2022-12-29T03:00:50;1.6;;;0.3;;
68375;SDS011;55318;52.068;5.188;2022-12-29T03:02:52;1.5;;;0.5;;
68375;SDS011;55318;52.068;5.188;2022-12-29T03:04:55;1.3;;;0.5;;
68375;SDS011;55318;52.068;5.188;2022-12-29T03:06:54;1.0;;;0.6;;
68375;SDS011;55318;52.068;5.188;2022-12-29T03:08:41;5.9;;;0.9;;
68375;SDS011;55318;52.068;5.188;2022-12-29T03:12:24;0.3;;;0.2;;
68375;SDS011;55318;52.068;5.188;2022-12-29T03:14:07;0.3;;;0.2;;
68375;SDS011;55318;52.068;5.188;2022-12-29T03:15:54;0.2;;;0.1;;
68375;SDS011;55318;52.068;5.188;2022-12-29T03:17:40;1.3;;;0.3;;
68375;SDS011;55318;52.068;5.188;2022-12-29T03:19:26;1.3;;;0.4;;
68375;SDS011;55318;52.068;5.188;2022-12-29T03:21:08;2.7;;;0.4;;
68375;SDS011;55318;52.068;5.188;2022-12-29T03:24:36;1.7;;;0.3;;
68375;SDS011;55318;52.068;5.188;2022-12-29T03:26:26;0.3;;;0.3;;
68375;SDS011;55318;52.068;5.188;2022-12-29T03:28:05;1.11;;;0.5;;
68375;SDS011;55318;52.068;5.188;2022-12-29T03:29:46;0.7;;;0.4;;
68375;SDS011;55318;52.068;5.188;2022-12-29T03:33:04;0.5;;;0.4;;
68375;SDS011;55318;52.068;5.188;2022-12-29T03:34:45;0.5;;;0.4;;
68375;SDS011;55318;52.068;5.188;2022-12-29T03:36:26;0.8;;;0.4;;
68375;SDS011;55318;52.068;5.188;2022-12-29T03:38:13;1.4;;;0.3;;
68375;SDS011;55318;52.068;5.188;2022-12-29T03:39:55;1.3;;;0.6;;
68375;SDS011;55318;52.068;5.188;2022-12-29T03:43:10;1.3;;;0.3;;
68375;SDS011;55318;52.068;5.188;2022-12-29T03:44:48;5.8;;;0.9;;
68375;SDS011;55318;52.068;5.188;2022-12-29T03:46:30;5.0;;;1.0;;
68375;SDS011;55318;52.068;5.188;2022-12-29T03:49:43;0.2;;;0.2;;
68375;SDS011;55318;52.068;5.188;2022-12-29T03:51:20;2.0;;;0.7;;
68375;SDS011;55318;52.068;5.188;2022-12-29T03:52:59;0.6;;;0.5;;
68375;SDS011;55318;52.068;5.188;2022-12-29T03:54:35;0.7;;;0.3;;
68375;SDS011;55318;52.068;5.188;2022-12-29T03:57:47;1.4;;;0.6;;
68375;SDS011;55318;52.068;5.188;2022-12-29T03:59:24;0.4;;;0.3;;
68375;SDS011;55318;52.068;5.188;2022-12-29T04:01:00;1.8;;;0.4;;
68375;SDS011;55318;52.068;5.188;2022-12-29T04:04:12;2.0;;;0.6;;
68375;SDS011;55318;52.068;5.188;2022-12-29T04:05:49;1.3;;;0.9;;
68375;SDS011;55318;52.068;5.188;2022-12-29T04:07:25;2.5;;;0.4;;
68375;SDS011;55318;52.068;5.188;2022-12-29T04:10:39;2.1;;;0.4;;
68375;SDS011;55318;52.068;5.188;2022-12-29T04:12:16;1.9;;;1.0;;
68375;SDS011;55318;52.068;5.188;2022-12-29T04:13:53;2.6;;;0.7;;
68375;SDS011;55318;52.068;5.188;2022-12-29T04:15:29;2.4;;;0.7;;
68375;SDS011;55318;52.068;5.188;2022-12-29T04:18:42;3.1;;;0.7;;
68375;SDS011;55318;52.068;5.188;2022-12-29T04:20:19;0.7;;;0.7;;
68375;SDS011;55318;52.068;5.188;2022-12-29T04:21:55;2.7;;;0.5;;
68375;SDS011;55318;52.068;5.188;2022-12-29T04:25:11;1.11;;;0.8;;
68375;SDS011;55318;52.068;5.188;2022-12-29T04:26:47;2.1;;;0.7;;
68375;SDS011;55318;52.068;5.188;2022-12-29T04:28:23;6.1;;;1.0;;
68375;SDS011;55318;52.068;5.188;2022-12-29T04:31:37;1.2;;;0.5;;
68375;SDS011;55318;52.068;5.188;2022-12-29T04:33:13;2.1;;;1.0;;
68375;SDS011;55318;52.068;5.188;2022-12-29T04:34:50;1.0;;;0.5;;
68375;SDS011;55318;52.068;5.188;2022-12-29T04:39:39;2.9;;;1.4;;
68375;SDS011;55318;52.068;5.188;2022-12-29T04:41:15;3.3;;;1.0;;
68375;SDS011;55318;52.068;5.188;2022-12-29T04:42:52;2.31;;;1.11;;
68375;SDS011;55318;52.068;5.188;2022-12-29T04:46:04;2.1;;;0.9;;
68375;SDS011;55318;52.068;5.188;2022-12-29T04:47:41;1.11;;;0.8;;
68375;SDS011;55318;52.068;5.188;2022-12-29T04:49:17;2.6;;;0.8;;
68375;SDS011;55318;52.068;5.188;2022-12-29T04:52:30;3.1;;;1.2;;
68375;SDS011;55318;52.068;5.188;2022-12-29T04:54:07;1.9;;;0.9;;
68375;SDS011;55318;52.068;5.188;2022-12-29T04:55:47;1.7;;;0.7;;
68375;SDS011;55318;52.068;5.188;2022-12-29T04:57:24;2.1;;;0.8;;
68375;SDS011;55318;52.068;5.188;2022-12-29T05:00:38;2.21;;;0.9;;
68375;SDS011;55318;52.068;5.188;2022-12-29T05:02:14;2.1;;;0.8;;
68375;SDS011;55318;52.068;5.188;2022-12-29T05:03:51;7.0;;;1.2;;
68375;SDS011;55318;52.068;5.188;2022-12-29T05:07:05;6.4;;;1.5;;
68375;SDS011;55318;52.068;5.188;2022-12-29T05:08:42;3.1;;;1.4;;
68375;SDS011;55318;52.068;5.188;2022-12-29T05:10:18;4.1;;;1.2;;
68375;SDS011;55318;52.068;5.188;2022-12-29T05:11:54;3.4;;;0.9;;
68375;SDS011;55318;52.068;5.188;2022-12-29T05:15:07;4.1;;;0.7;;
68375;SDS011;55318;52.068;5.188;2022-12-29T05:16:45;2.7;;;0.9;;
68375;SDS011;55318;52.068;5.188;2022-12-29T05:18:22;5.3;;;2.5;;
68375;SDS011;55318;52.068;5.188;2022-12-29T05:23:12;4.7;;;1.3;;
68375;SDS011;55318;52.068;5.188;2022-12-29T05:24:49;4.7;;;1.3;;
68375;SDS011;55318;52.068;5.188;2022-12-29T05:28:01;3.2;;;1.3;;
68375;SDS011;55318;52.068;5.188;2022-12-29T05:29:39;3.3;;;1.0;;
68375;SDS011;55318;52.068;5.188;2022-12-29T05:31:15;3.0;;;0.7;;
68375;SDS011;55318;52.068;5.188;2022-12-29T05:32:51;4.5;;;0.8;;
68375;SDS011;55318;52.068;5.188;2022-12-29T05:36:06;10.3;;;0.9;;
68375;SDS011;55318;52.068;5.188;2022-12-29T05:37:44;5.5;;;1.2;;
68375;SDS011;55318;52.068;5.188;2022-12-29T05:39:21;3.8;;;1.5;;
68375;SDS011;55318;52.068;5.188;2022-12-29T05:42:33;5.0;;;1.4;;
68375;SDS011;55318;52.068;5.188;2022-12-29T05:45:48;4.5;;;1.4;;
68375;SDS011;55318;52.068;5.188;2022-12-29T05:47:25;10.9;;;1.2;;
68375;SDS011;55318;52.068;5.188;2022-12-29T05:50:37;3.5;;;1.6;;
68375;SDS011;55318;52.068;5.188;2022-12-29T05:52:13;3.4;;;1.4;;
68375;SDS011;55318;52.068;5.188;2022-12-29T05:53:50;4.5;;;1.3;;
68375;SDS011;55318;52.068;5.188;2022-12-29T05:57:03;2.0;;;0.9;;
68375;SDS011;55318;52.068;5.188;2022-12-29T05:58:39;3.7;;;1.3;;
68375;SDS011;55318;52.068;5.188;2022-12-29T06:00:16;4.61;;;1.3;;
68375;SDS011;55318;52.068;5.188;2022-12-29T06:03:28;4.5;;;1.5;;
68375;SDS011;55318;52.068;5.188;2022-12-29T06:05:05;2.5;;;0.8;;
68375;SDS011;55318;52.068;5.188;2022-12-29T06:06:42;3.2;;;1.5;;
68375;SDS011;55318;52.068;5.188;2022-12-29T06:09:55;3.3;;;1.4;;
68375;SDS011;55318;52.068;5.188;2022-12-29T06:11:32;3.3;;;0.8;;
68375;SDS011;55318;52.068;5.188;2022-12-29T06:13:09;3.5;;;1.0;;
68375;SDS011;55318;52.068;5.188;2022-12-29T06:14:45;2.9;;;1.11;;
68375;SDS011;55318;52.068;5.188;2022-12-29T06:17:59;6.8;;;1.4;;
68375;SDS011;55318;52.068;5.188;2022-12-29T06:19:36;3.1;;;1.11;;
68375;SDS011;55318;52.068;5.188;2022-12-29T06:21:12;6.0;;;1.6;;
68375;SDS011;55318;52.068;5.188;2022-12-29T06:24:25;5.4;;;1.11;;
68375;SDS011;55318;52.068;5.188;2022-12-29T06:26:03;5.6;;;1.8;;
68375;SDS011;55318;52.068;5.188;2022-12-29T06:27:40;2.7;;;1.5;;
68375;SDS011;55318;52.068;5.188;2022-12-29T06:29:17;5.6;;;1.11;;
68375;SDS011;55318;52.068;5.188;2022-12-29T06:32:30;4.0;;;1.11;;
68375;SDS011;55318;52.068;5.188;2022-12-29T06:34:07;7.9;;;1.3;;
68375;SDS011;55318;52.068;5.188;2022-12-29T06:35:43;3.7;;;1.2;;
68375;SDS011;55318;52.068;5.188;2022-12-29T06:38:57;4.91;;;1.11;;
68375;SDS011;55318;52.068;5.188;2022-12-29T06:40:33;3.8;;;0.9;;
68375;SDS011;55318;52.068;5.188;2022-12-29T06:42:10;2.9;;;1.3;;
68375;SDS011;55318;52.068;5.188;2022-12-29T06:45:22;4.61;;;1.11;;
68375;SDS011;55318;52.068;5.188;2022-12-29T06:47:01;3.7;;;1.6;;
68375;SDS011;55318;52.068;5.188;2022-12-29T06:48:37;2.6;;;1.0;;
68375;SDS011;55318;52.068;5.188;2022-12-29T06:50:13;2.4;;;1.5;;
68375;SDS011;55318;52.068;5.188;2022-12-29T06:53:28;4.61;;;1.5;;
68375;SDS011;55318;52.068;5.188;2022-12-29T06:55:05;2.4;;;0.8;;
68375;SDS011;55318;52.068;5.188;2022-12-29T06:58:20;3.1;;;1.4;;
68375;SDS011;55318;52.068;5.188;2022-12-29T06:59:56;3.7;;;1.0;;
68375;SDS011;55318;52.068;5.188;2022-12-29T07:01:33;5.2;;;0.9;;
68375;SDS011;55318;52.068;5.188;2022-12-29T07:03:10;2.8;;;1.4;;
68375;SDS011;55318;52.068;5.188;2022-12-29T07:06:22;5.9;;;1.8;;
68375;SDS011;55318;52.068;5.188;2022-12-29T07:07:59;7.2;;;1.3;;
68375;SDS011;55318;52.068;5.188;2022-12-29T07:09:36;3.1;;;1.4;;
68375;SDS011;55318;52.068;5.188;2022-12-29T07:11:12;4.0;;;1.0;;
68375;SDS011;55318;52.068;5.188;2022-12-29T07:14:26;7.7;;;1.0;;
68375;SDS011;55318;52.068;5.188;2022-12-29T07:16:04;5.2;;;1.11;;
68375;SDS011;55318;52.068;5.188;2022-12-29T07:17:42;2.0;;;0.9;;
68375;SDS011;55318;52.068;5.188;2022-12-29T07:20:55;6.8;;;1.0;;
68375;SDS011;55318;52.068;5.188;2022-12-29T07:22:32;4.1;;;1.11;;
68375;SDS011;55318;52.068;5.188;2022-12-29T07:24:08;4.61;;;1.7;;
68375;SDS011;55318;52.068;5.188;2022-12-29T07:25:45;4.0;;;1.3;;
68375;SDS011;55318;52.068;5.188;2022-12-29T07:28:59;3.5;;;1.11;;
68375;SDS011;55318;52.068;5.188;2022-12-29T07:30:36;2.1;;;0.8;;
68375;SDS011;55318;52.068;5.188;2022-12-29T07:32:14;2.4;;;1.11;;
68375;SDS011;55318;52.068;5.188;2022-12-29T07:35:28;2.6;;;1.3;;
68375;SDS011;55318;52.068;5.188;2022-12-29T07:37:04;3.5;;;0.9;;
68375;SDS011;55318;52.068;5.188;2022-12-29T07:38:41;4.1;;;1.6;;
68375;SDS011;55318;52.068;5.188;2022-12-29T07:41:56;3.2;;;1.4;;
68375;SDS011;55318;52.068;5.188;2022-12-29T07:43:32;4.41;;;0.7;;
68375;SDS011;55318;52.068;5.188;2022-12-29T07:45:10;1.7;;;0.7;;
68375;SDS011;55318;52.068;5.188;2022-12-29T07:46:47;2.21;;;1.2;;
68375;SDS011;55318;52.068;5.188;2022-12-29T07:49:59;10.4;;;1.9;;
68375;SDS011;55318;52.068;5.188;2022-12-29T07:51:36;3.7;;;1.11;;
68375;SDS011;55318;52.068;5.188;2022-12-29T07:53:14;4.41;;;1.8;;
68375;SDS011;55318;52.068;5.188;2022-12-29T07:56:27;2.9;;;1.3;;
68375;SDS011;55318;52.068;5.188;2022-12-29T07:58:04;4.2;;;1.4;;
68375;SDS011;55318;52.068;5.188;2022-12-29T07:59:40;4.91;;;1.8;;
68375;SDS011;55318;52.068;5.188;2022-12-29T08:02:53;4.2;;;0.8;;
68375;SDS011;55318;52.068;5.188;2022-12-29T08:04:29;4.0;;;1.8;;
68375;SDS011;55318;52.068;5.188;2022-12-29T08:06:05;3.0;;;1.4;;
68375;SDS011;55318;52.068;5.188;2022-12-29T08:07:44;3.0;;;1.5;;
68375;SDS011;55318;52.068;5.188;2022-12-29T08:10:58;6.0;;;1.3;;
68375;SDS011;55318;52.068;5.188;2022-12-29T08:12:34;4.2;;;1.11;;
68375;SDS011;55318;52.068;5.188;2022-12-29T08:14:10;3.1;;;1.3;;
68375;SDS011;55318;52.068;5.188;2022-12-29T08:17:23;4.3;;;1.8;;
68375;SDS011;55318;52.068;5.188;2022-12-29T08:18:59;4.91;;;2.1;;
68375;SDS011;55318;52.068;5.188;2022-12-29T08:20:36;2.9;;;1.4;;
68375;SDS011;55318;52.068;5.188;2022-12-29T08:23:49;6.2;;;1.5;;
68375;SDS011;55318;52.068;5.188;2022-12-29T08:25:25;3.8;;;1.4;;
68375;SDS011;55318;52.068;5.188;2022-12-29T08:27:01;4.2;;;1.11;;
68375;SDS011;55318;52.068;5.188;2022-12-29T08:28:38;4.5;;;1.6;;
68375;SDS011;55318;52.068;5.188;2022-12-29T08:31:51;2.5;;;1.4;;
68375;SDS011;55318;52.068;5.188;2022-12-29T08:33:27;3.9;;;1.5;;
68375;SDS011;55318;52.068;5.188;2022-12-29T08:35:05;4.5;;;2.21;;
68375;SDS011;55318;52.068;5.188;2022-12-29T08:38:18;3.9;;;1.9;;
68375;SDS011;55318;52.068;5.188;2022-12-29T08:39:55;2.8;;;1.5;;
68375;SDS011;55318;52.068;5.188;2022-12-29T08:41:31;2.21;;;1.3;;
68375;SDS011;55318;52.068;5.188;2022-12-29T08:44:44;3.6;;;1.11;;
68375;SDS011;55318;52.068;5.188;2022-12-29T08:46:20;4.5;;;1.6;;
68375;SDS011;55318;52.068;5.188;2022-12-29T08:47:57;3.2;;;0.9;;
68375;SDS011;55318;52.068;5.188;2022-12-29T08:49:33;7.0;;;1.7;;
68375;SDS011;55318;52.068;5.188;2022-12-29T08:52:46;4.2;;;2.0;;
68375;SDS011;55318;52.068;5.188;2022-12-29T08:54:22;5.9;;;1.9;;
68375;SDS011;55318;52.068;5.188;2022-12-29T08:55:59;5.8;;;1.9;;
68375;SDS011;55318;52.068;5.188;2022-12-29T08:59:12;4.2;;;1.8;;
68375;SDS011;55318;52.068;5.188;2022-12-29T09:00:51;6.8;;;2.1;;
68375;SDS011;55318;52.068;5.188;2022-12-29T09:02:28;6.1;;;1.11;;
68375;SDS011;55318;52.068;5.188;2022-12-29T09:04:04;3.7;;;0.9;;
68375;SDS011;55318;52.068;5.188;2022-12-29T09:07:16;8.0;;;1.4;;
68375;SDS011;55318;52.068;5.188;2022-12-29T09:08:53;4.41;;;1.6;;
68375;SDS011;55318;52.068;5.188;2022-12-29T09:10:30;3.3;;;1.4;;
68375;SDS011;55318;52.068;5.188;2022-12-29T09:13:43;7.0;;;1.5;;
68375;SDS011;55318;52.068;5.188;2022-12-29T09:15:20;4.1;;;1.4;;
68375;SDS011;55318;52.068;5.188;2022-12-29T09:18:33;9.81;;;2.31;;
68375;SDS011;55318;52.068;5.188;2022-12-29T09:20:10;3.0;;;1.11;;
68375;SDS011;55318;52.068;5.188;2022-12-29T09:21:47;2.7;;;0.9;;
68375;SDS011;55318;52.068;5.188;2022-12-29T09:23:23;7.5;;;1.5;;
68375;SDS011;55318;52.068;5.188;2022-12-29T09:25:00;4.2;;;2.0;;
68375;SDS011;55318;52.068;5.188;2022-12-29T09:28:12;6.6;;;1.8;;
68375;SDS011;55318;52.068;5.188;2022-12-29T09:29:49;4.0;;;1.6;;
68375;SDS011;55318;52.068;5.188;2022-12-29T09:31:25;4.3;;;1.2;;
68375;SDS011;55318;52.068;5.188;2022-12-29T09:34:39;4.5;;;1.2;;
68375;SDS011;55318;52.068;5.188;2022-12-29T09:36:16;3.7;;;0.9;;
68375;SDS011;55318;52.068;5.188;2022-12-29T09:41:06;4.7;;;1.5;;
68375;SDS011;55318;52.068;5.188;2022-12-29T09:42:53;2.8;;;1.9;;
68375;SDS011;55318;52.068;5.188;2022-12-29T09:44:48;4.0;;;1.0;;
68375;SDS011;55318;52.068;5.188;2022-12-29T09:46:37;5.3;;;2.0;;
68375;SDS011;55318;52.068;5.188;2022-12-29T09:48:17;3.5;;;1.3;;
68375;SDS011;55318;52.068;5.188;2022-12-29T09:51:42;2.8;;;1.0;;
68375;SDS011;55318;52.068;5.188;2022-12-29T09:53:24;3.0;;;0.8;;
68375;SDS011;55318;52.068;5.188;2022-12-29T09:55:08;4.1;;;1.9;;
68375;SDS011;55318;52.068;5.188;2022-12-29T09:56:49;2.21;;;1.4;;
68375;SDS011;55318;52.068;5.188;2022-12-29T10:00:13;3.9;;;0.9;;
68375;SDS011;55318;52.068;5.188;2022-12-29T10:01:53;4.3;;;1.5;;
68375;SDS011;55318;52.068;5.188;2022-12-29T10:03:38;2.4;;;1.11;;
68375;SDS011;55318;52.068;5.188;2022-12-29T10:05:27;2.1;;;0.9;;
68375;SDS011;55318;52.068;5.188;2022-12-29T10:07:13;2.0;;;1.11;;
68375;SDS011;55318;52.068;5.188;2022-12-29T10:09:01;2.6;;;1.0;;
68375;SDS011;55318;52.068;5.188;2022-12-29T10:12:31;2.21;;;0.9;;
68375;SDS011;55318;52.068;5.188;2022-12-29T10:14:30;3.7;;;1.0;;
68375;SDS011;55318;52.068;5.188;2022-12-29T10:16:18;4.41;;;1.0;;
68375;SDS011;55318;52.068;5.188;2022-12-29T10:18:03;5.7;;;1.0;;
68375;SDS011;55318;52.068;5.188;2022-12-29T10:19:58;4.0;;;0.8;;
68375;SDS011;55318;52.068;5.188;2022-12-29T10:21:57;2.21;;;0.8;;
68375;SDS011;55318;52.068;5.188;2022-12-29T10:23:46;4.91;;;0.8;;
68375;SDS011;55318;52.068;5.188;2022-12-29T10:27:11;2.8;;;1.11;;
68375;SDS011;55318;52.068;5.188;2022-12-29T10:28:50;3.5;;;0.9;;
68375;SDS011;55318;52.068;5.188;2022-12-29T10:30:31;1.3;;;0.8;;
68375;SDS011;55318;52.068;5.188;2022-12-29T10:32:20;4.91;;;0.9;;
68375;SDS011;55318;52.068;5.188;2022-12-29T10:34:06;5.9;;;1.5;;
68375;SDS011;55318;52.068;5.188;2022-12-29T10:37:33;2.1;;;0.9;;
68375;SDS011;55318;52.068;5.188;2022-12-29T10:39:20;5.0;;;2.0;;
68375;SDS011;55318;52.068;5.188;2022-12-29T10:41:05;4.1;;;2.1;;
68375;SDS011;55318;52.068;5.188;2022-12-29T10:42:51;4.3;;;1.11;;
68375;SDS011;55318;52.068;5.188;2022-12-29T10:44:30;6.0;;;2.21;;
68375;SDS011;55318;52.068;5.188;2022-12-29T10:47:53;4.5;;;1.5;;
68375;SDS011;55318;52.068;5.188;2022-12-29T10:51:24;7.8;;;2.8;;
68375;SDS011;55318;52.068;5.188;2022-12-29T10:53:02;7.2;;;2.5;;
68375;SDS011;55318;52.068;5.188;2022-12-29T10:56:28;4.8;;;2.0;;
68375;SDS011;55318;52.068;5.188;2022-12-29T10:58:10;4.8;;;1.3;;
68375;SDS011;55318;52.068;5.188;2022-12-29T10:59:50;4.3;;;1.8;;
68375;SDS011;55318;52.068;5.188;2022-12-29T11:01:29;7.2;;;2.31;;
68375;SDS011;55318;52.068;5.188;2022-12-29T11:05:23;4.41;;;1.9;;
68375;SDS011;55318;52.068;5.188;2022-12-29T11:07:08;8.4;;;1.5;;
68375;SDS011;55318;52.068;5.188;2022-12-29T11:08:48;5.8;;;1.7;;
68375;SDS011;55318;52.068;5.188;2022-12-29T11:10:34;4.7;;;1.9;;
68375;SDS011;55318;52.068;5.188;2022-12-29T11:12:17;11.2;;;2.9;;
68375;SDS011;55318;52.068;5.188;2022-12-29T11:13:57;4.61;;;1.5;;
68375;SDS011;55318;52.068;5.188;2022-12-29T11:17:17;8.5;;;2.31;;
68375;SDS011;55318;52.068;5.188;2022-12-29T11:18:53;4.8;;;1.6;;
68375;SDS011;55318;52.068;5.188;2022-12-29T11:20:31;9.31;;;2.4;;
68375;SDS011;55318;52.068;5.188;2022-12-29T11:22:13;8.31;;;2.1;;
68375;SDS011;55318;52.068;5.188;2022-12-29T11:25:34;7.4;;;2.21;;
68375;SDS011;55318;52.068;5.188;2022-12-29T11:30:23;9.0;;;3.0;;
68375;SDS011;55318;52.068;5.188;2022-12-29T11:32:10;5.11;;;1.4;;
68375;SDS011;55318;52.068;5.188;2022-12-29T11:33:48;8.81;;;2.6;;
68375;SDS011;55318;52.068;5.188;2022-12-29T11:35:33;10.1;;;1.7;;
68375;SDS011;55318;52.068;5.188;2022-12-29T11:37:13;4.0;;;2.0;;
68375;SDS011;55318;52.068;5.188;2022-12-29T11:38:53;10.3;;;2.0;;
68375;SDS011;55318;52.068;5.188;2022-12-29T11:42:15;4.2;;;2.31;;
68375;SDS011;55318;52.068;5.188;2022-12-29T11:43:56;6.6;;;2.31;;
68375;SDS011;55318;52.068;5.188;2022-12-29T11:45:35;6.3;;;2.1;;
68375;SDS011;55318;52.068;5.188;2022-12-29T11:49:00;10.9;;;2.4;;
68375;SDS011;55318;52.068;5.188;2022-12-29T11:50:39;4.91;;;2.0;;
68375;SDS011;55318;52.068;5.188;2022-12-29T11:52:20;7.9;;;2.4;;
68375;SDS011;55318;52.068;5.188;2022-12-29T11:53:59;7.6;;;2.1;;
68375;SDS011;55318;52.068;5.188;2022-12-29T11:55:39;14.3;;;3.1;;
68375;SDS011;55318;52.068;5.188;2022-12-29T11:58:56;8.9;;;2.4;;
68375;SDS011;55318;52.068;5.188;2022-12-29T12:00:34;10.1;;;2.4;;
68375;SDS011;55318;52.068;5.188;2022-12-29T12:02:22;8.9;;;2.9;;
68375;SDS011;55318;52.068;5.188;2022-12-29T12:04:54;10.7;;;2.8;;
68375;SDS011;55318;52.068;5.188;2022-12-29T12:06:40;6.1;;;1.9;;
68375;SDS011;55318;52.068;5.188;2022-12-29T12:08:34;8.9;;;3.1;;
68375;SDS011;55318;52.068;5.188;2022-12-29T12:11:57;6.6;;;2.0;;
68375;SDS011;55318;52.068;5.188;2022-12-29T12:13:39;7.9;;;2.0;;
68375;SDS011;55318;52.068;5.188;2022-12-29T12:15:27;7.0;;;1.6;;
68375;SDS011;55318;52.068;5.188;2022-12-29T12:17:09;5.7;;;1.7;;
68375;SDS011;55318;52.068;5.188;2022-12-29T12:18:51;7.0;;;2.5;;
68375;SDS011;55318;52.068;5.188;2022-12-29T12:22:19;7.2;;;1.7;;
68375;SDS011;55318;52.068;5.188;2022-12-29T12:24:11;8.81;;;2.8;;
68375;SDS011;55318;52.068;5.188;2022-12-29T12:26:14;5.7;;;2.1;;
68375;SDS011;55318;52.068;5.188;2022-12-29T12:27:56;8.71;;;3.0;;
68375;SDS011;55318;52.068;5.188;2022-12-29T12:29:38;10.9;;;2.4;;
68375;SDS011;55318;52.068;5.188;2022-12-29T12:31:26;6.3;;;2.0;;
68375;SDS011;55318;52.068;5.188;2022-12-29T12:35:07;8.2;;;2.21;;
68375;SDS011;55318;52.068;5.188;2022-12-29T12:36:52;6.8;;;2.1;;
68375;SDS011;55318;52.068;5.188;2022-12-29T12:38:43;6.8;;;2.1;;
68375;SDS011;55318;52.068;5.188;2022-12-29T12:40:34;6.1;;;2.0;;
68375;SDS011;55318;52.068;5.188;2022-12-29T12:42:24;11.5;;;1.9;;
68375;SDS011;55318;52.068;5.188;2022-12-29T12:44:14;7.0;;;1.8;;
68375;SDS011;55318;52.068;5.188;2022-12-29T12:46:02;9.1;;;1.9;;
68375;SDS011;55318;52.068;5.188;2022-12-29T12:50:08;4.3;;;1.5;;
68375;SDS011;55318;52.068;5.188;2022-12-29T12:52:15;6.3;;;2.21;;
68375;SDS011;55318;52.068;5.188;2022-12-29T12:56:12;9.81;;;2.5;;
68375;SDS011;55318;52.068;5.188;2022-12-29T12:58:52;4.41;;;1.4;;
68375;SDS011;55318;52.068;5.188;2022-12-29T13:00:37;6.9;;;1.9;;
68375;SDS011;55318;52.068;5.188;2022-12-29T13:04:34;3.2;;;1.9;;
68375;SDS011;55318;52.068;5.188;2022-12-29T13:06:41;5.11;;;2.0;;
68375;SDS011;55318;52.068;5.188;2022-12-29T13:08:37;6.8;;;2.0;;
68375;SDS011;55318;52.068;5.188;2022-12-29T13:10:40;4.0;;;1.9;;
68375;SDS011;55318;52.068;5.188;2022-12-29T13:12:20;5.9;;;1.6;;
68375;SDS011;55318;52.068;5.188;2022-12-29T13:14:16;5.0;;;2.0;;
68375;SDS011;55318;52.068;5.188;2022-12-29T13:16:05;5.3;;;1.4;;
68375;SDS011;55318;52.068;5.188;2022-12-29T13:17:53;6.9;;;2.1;;